Time;durP1;ratioP1;P1;durP2;ratioP2;P2;SDS_P1;SDS_P2;PMS_P1;PMS_P2;Temp;Humidity;BMP_temperature;BMP_pressure;BME280_temperature;BME280_humidity;BME280_pressure;Samples;Min_cycle;Max_cycle;Signal;HPM_P1;HPM_P2
2022/07/13 00:02:03;;;;;;;3.60;1.95;;;;;;;21.00;61.68;101842.81;4948114;29;20046;-77
2022/07/13 00:04:33;;;;;;;4.35;2.30;;;;;;;21.01;61.36;101833.50;4948940;28;20039;-77
2022/07/13 00:07:12;;;;;;;10.77;2.20;;;;;;;20.95;61.56;101828.81;4962267;28;20031;-77
2022/07/13 00:09:40;;;;;;;6.43;2.28;;;;;;;20.88;61.88;101822.41;4969847;28;20492;-77
2022/07/13 00:12:05;;;;;;;3.60;2.10;;;;;;;21.00;61.72;101815.28;4946280;28;20022;-77
2022/07/13 00:14:31;;;;;;;6.13;1.98;;;;;;;20.97;61.63;101816.53;4965002;28;20084;-78
2022/07/13 00:17:02;;;;;;;7.88;2.38;;;;;;;20.93;62.04;101808.84;4949017;28;20019;-78
2022/07/13 00:19:39;;;;;;;4.53;2.40;;;;;;;21.06;61.35;101808.91;4954321;28;20035;-77
2022/07/13 00:22:08;;;;;;;8.88;2.10;;;;;;;21.13;61.10;101804.31;4955172;28;20031;-78
2022/07/13 00:24:41;;;;;;;11.32;2.28;;;;;;;21.06;61.20;101807.06;4953660;28;20019;-78
2022/07/13 00:27:10;;;;;;;4.75;1.95;;;;;;;21.09;60.90;101800.28;4944339;29;20035;-78
2022/07/13 00:29:35;;;;;;;4.32;2.17;;;;;;;20.83;62.02;101799.09;4947003;28;20121;-77
2022/07/13 00:32:01;;;;;;;4.07;1.80;;;;;;;20.83;62.18;101799.09;4945682;28;20142;-77
2022/07/13 00:34:32;;;;;;;6.47;1.73;;;;;;;21.02;61.75;101796.63;4948202;28;20034;-78
2022/07/13 00:36:58;;;;;;;5.07;2.00;;;;;;;20.96;61.87;101802.97;4947222;29;20027;-78
2022/07/13 00:39:27;;;;;;;3.92;2.42;;;;;;;21.10;61.53;101801.97;4947856;28;20512;-78
2022/07/13 00:41:58;;;;;;;3.85;1.67;;;;;;;21.12;61.51;101805.34;4952684;28;20046;-77
2022/07/13 00:44:29;;;;;;;5.38;2.17;;;;;;;21.04;61.36;101791.75;4947019;28;20027;-78
2022/07/13 00:47:00;;;;;;;2.90;1.75;;;;;;;20.97;61.92;101782.63;4976025;28;20027;-78
2022/07/13 00:49:28;;;;;;;9.55;2.00;;;;;;;21.12;61.92;101780.56;4962976;28;20035;-78
2022/07/13 00:51:55;;;;;;;4.97;2.20;;;;;;;20.85;63.38;101772.19;4947917;28;20018;-77
2022/07/13 00:54:32;;;;;;;4.70;2.60;;;;;;;20.89;63.36;101774.56;4944650;28;20078;-78
2022/07/13 00:57:07;;;;;;;5.75;2.28;;;;;;;20.96;62.49;101778.19;4974154;28;20122;-77
2022/07/13 00:59:40;;;;;;;3.42;2.00;;;;;;;20.97;62.51;101777.13;4940171;28;20085;-77
2022/07/13 01:02:10;;;;;;;2.75;2.08;;;;;;;21.00;62.60;101771.22;4954228;28;20027;-78
2022/07/13 01:04:38;;;;;;;6.63;2.17;;;;;;;20.98;62.24;101760.38;4948261;28;20046;-78
2022/07/13 01:07:13;;;;;;;3.58;2.15;;;;;;;20.95;62.75;101773.72;4945923;29;20024;-77
2022/07/13 01:09:59;;;;;;;8.25;2.83;;;;;;;20.91;62.69;101761.41;4956510;28;20041;-77
2022/07/13 01:12:31;;;;;;;3.38;2.00;;;;;;;20.92;62.84;101769.47;4966193;28;20030;-77
2022/07/13 01:15:06;;;;;;;5.88;2.03;;;;;;;20.99;62.73;101764.00;4951470;28;20023;-78
2022/07/13 01:17:38;;;;;;;5.00;2.42;;;;;;;20.96;62.61;101764.41;4949942;28;20027;-78
2022/07/13 01:20:09;;;;;;;3.78;1.90;;;;;;;20.96;62.38;101761.66;4952846;28;20023;-78
2022/07/13 01:22:43;;;;;;;8.98;1.85;;;;;;;20.77;62.73;101761.34;4952838;28;20022;-79
2022/07/13 01:25:10;;;;;;;6.78;2.10;;;;;;;20.81;63.04;101767.31;4971399;28;20029;-79
2022/07/13 01:27:39;;;;;;;3.40;1.95;;;;;;;20.76;63.02;101758.81;4946142;28;20098;-78
2022/07/13 01:30:08;;;;;;;6.65;2.10;;;;;;;20.61;63.51;101750.69;4966576;28;20033;-78
2022/07/13 01:32:51;;;;;;;4.32;2.00;;;;;;;20.66;63.70;101748.16;4955752;28;20023;-78
2022/07/13 01:35:23;;;;;;;3.83;2.25;;;;;;;20.64;63.77;101733.75;4965408;28;20469;-78
2022/07/13 01:37:49;;;;;;;;;;;;;;;20.63;64.09;101737.56;4947100;28;20023;-78
2022/07/13 01:40:15;;;;;;;3.17;1.70;;;;;;;20.52;64.34;101735.38;4952215;28;19913;-78
2022/07/13 01:42:53;;;;;;;4.30;2.30;;;;;;;20.47;64.04;101737.91;4970963;28;20035;-77
2022/07/13 01:45:24;;;;;;;3.97;2.00;;;;;;;20.43;64.32;101731.94;4946680;28;20034;-78
2022/07/13 01:47:58;;;;;;;;;;;;;;;20.37;64.91;101731.88;4969819;28;20019;-78
2022/07/13 01:50:27;;;;;;;9.77;1.90;;;;;;;20.46;64.66;101725.19;4972124;28;19917;-76
2022/07/13 01:52:53;;;;;;;10.05;2.28;;;;;;;20.65;64.07;101724.44;4947593;29;20027;-77
2022/07/13 01:55:24;;;;;;;3.17;1.50;;;;;;;20.68;64.00;101718.56;4950826;28;20130;-77
2022/07/13 01:58:04;;;;;;;4.50;1.90;;;;;;;20.66;63.64;101720.66;4951121;28;20030;-77
2022/07/13 02:00:30;;;;;;;10.02;2.40;;;;;;;20.66;64.11;101715.13;4947077;28;20034;-77
2022/07/13 02:02:56;;;;;;;6.28;2.15;;;;;;;20.79;63.38;101709.69;4943452;28;20022;-77
2022/07/13 02:05:25;;;;;;;4.78;2.47;;;;;;;20.88;62.93;101712.28;4972369;28;20118;-76
2022/07/13 02:07:51;;;;;;;3.35;2.13;;;;;;;20.86;63.11;101710.59;4944272;29;20023;-76
2022/07/13 02:10:34;;;;;;;3.70;2.13;;;;;;;20.84;63.26;101707.19;4952318;28;20035;-76
2022/07/13 02:13:10;;;;;;;2.67;1.95;;;;;;;20.69;63.27;101709.25;4951927;28;20027;-77
2022/07/13 02:15:36;;;;;;;5.85;2.30;;;;;;;20.69;63.27;101714.75;4953827;28;20113;-77
2022/07/13 02:18:05;;;;;;;2.55;1.92;;;;;;;20.65;64.17;101690.59;4970914;28;20118;-76
2022/07/13 02:20:39;;;;;;;5.72;2.47;;;;;;;20.71;64.24;101685.09;4953909;28;20045;-77
2022/07/13 02:23:05;;;;;;;3.30;2.13;;;;;;;20.71;63.80;101687.84;4960106;28;20030;-78
2022/07/13 02:25:39;;;;;;;3.67;2.35;;;;;;;20.72;63.73;101692.31;4960945;28;20035;-76
2022/07/13 02:28:10;;;;;;;4.07;2.10;;;;;;;20.52;64.07;101688.63;4945647;28;20114;-77
2022/07/13 02:30:47;;;;;;;6.70;2.10;;;;;;;20.47;63.95;101691.13;4946890;28;20094;-78
2022/07/13 02:33:12;;;;;;;5.00;2.00;;;;;;;20.49;64.37;101691.78;4972034;28;20023;-77
2022/07/13 02:42:43;;;;;;;4.38;2.40;;;;;;;20.57;63.37;101677.84;5020407;28;20093;-77
2022/07/13 02:45:50;;;;;;;;;;;;;;;;;;;;;
2022/07/13 02:49:28;;;;;;;5.22;1.92;;;;;;;20.71;63.44;101679.59;4952939;28;20048;-77
2022/07/13 03:00:41;;;;;;;;;;;;;;;;;;;;;
2022/07/13 03:04:25;;;;;;;;;;;;;;;;;;;;;
2022/07/13 03:06:54;;;;;;;3.72;2.50;;;;;;;20.39;64.46;101669.25;4905001;23;20074;-71
2022/07/13 03:09:19;;;;;;;4.45;2.17;;;;;;;20.55;63.86;101666.22;4982072;28;20049;-71
2022/07/13 03:11:44;;;;;;;8.18;2.17;;;;;;;20.54;63.78;101672.78;4976202;28;20046;-71
2022/07/13 03:14:10;;;;;;;4.85;2.50;;;;;;;20.45;64.08;101665.72;4956095;28;20030;-73
2022/07/13 03:16:35;;;;;;;4.35;2.15;;;;;;;20.36;64.53;101658.69;4954372;28;20412;-71
2022/07/13 03:19:01;;;;;;;4.32;2.47;;;;;;;20.25;64.65;101658.19;4978696;28;20034;-71
2022/07/13 03:21:29;;;;;;;5.55;2.28;;;;;;;20.44;64.34;101666.75;4968928;28;20030;-71
2022/07/13 03:23:57;;;;;;;5.18;2.10;;;;;;;20.53;64.21;101660.88;4984150;28;20050;-71
2022/07/13 03:26:24;;;;;;;8.00;2.15;;;;;;;20.47;64.15;101655.34;4995104;28;20034;-71
2022/07/13 03:28:49;;;;;;;3.97;2.45;;;;;;;20.35;64.83;101662.50;4969430;28;20462;-71
2022/07/13 03:31:15;;;;;;;7.47;2.60;;;;;;;20.49;63.90;101653.28;4964432;28;20034;-71
2022/07/13 03:33:41;;;;;;;5.57;2.20;;;;;;;20.47;63.94;101649.84;4970409;28;20027;-71
2022/07/13 03:36:07;;;;;;;5.25;2.13;;;;;;;20.48;64.48;101646.06;4962578;28;20034;-71
2022/07/13 03:38:33;;;;;;;3.95;2.65;;;;;;;20.32;64.77;101648.06;4995499;28;20089;-71
2022/07/13 03:40:59;;;;;;;8.77;2.38;;;;;;;20.47;64.29;101641.59;4965143;28;20026;-71
2022/07/13 03:43:24;;;;;;;3.85;2.47;;;;;;;20.56;63.92;101643.13;4964594;28;20037;-71
2022/07/13 03:45:50;;;;;;;7.10;2.55;;;;;;;20.48;64.55;101646.06;4982802;28;20086;-71
2022/07/13 03:48:16;;;;;;;6.72;2.92;;;;;;;20.36;65.14;101636.69;4968549;28;20026;-71
2022/07/13 03:50:43;;;;;;;7.00;2.85;;;;;;;20.43;64.00;101632.06;4973958;28;20093;-71
2022/07/13 03:53:08;;;;;;;10.55;2.92;;;;;;;20.53;64.01;101627.03;4980474;28;20082;-71
2022/07/13 03:55:33;;;;;;;5.50;2.60;;;;;;;20.59;63.65;101631.72;4967413;28;20110;-70
2022/07/13 03:57:59;;;;;;;9.13;2.83;;;;;;;20.50;64.37;101632.97;4957442;28;20477;-70
2022/07/13 04:00:24;;;;;;;9.48;2.70;;;;;;;20.56;63.85;101629.38;4979728;28;20117;-70
2022/07/13 04:02:49;;;;;;;5.65;2.20;;;;;;;20.66;63.65;101627.06;4960043;28;20050;-71
2022/07/13 04:05:15;;;;;;;7.00;2.42;;;;;;;20.68;63.27;101619.47;4985289;28;20026;-71
2022/07/13 04:07:40;;;;;;;6.95;2.10;;;;;;;20.78;63.47;101625.44;4970207;28;20030;-71
2022/07/13 04:10:06;;;;;;;5.78;2.60;;;;;;;20.68;63.11;101615.88;4977025;28;20030;-71
2022/07/13 04:12:32;;;;;;;11.07;2.60;;;;;;;20.68;63.16;101613.97;4988949;28;20022;-71
2022/07/13 04:14:57;;;;;;;16.70;2.85;;;;;;;20.79;62.85;101610.59;4986206;28;20072;-71
2022/07/13 04:17:22;;;;;;;9.07;2.78;;;;;;;20.89;62.43;101609.38;4960897;28;20023;-70
2022/07/13 04:19:48;;;;;;;7.53;2.53;;;;;;;21.03;61.51;101600.06;4984356;28;20112;-71
2022/07/13 04:22:13;;;;;;;6.32;2.35;;;;;;;20.97;61.98;101600.91;4984060;28;20036;-71
2022/07/13 04:24:38;;;;;;;9.18;2.60;;;;;;;21.01;62.14;101608.56;4985720;28;20031;-72
2022/07/13 04:27:04;;;;;;;8.27;2.70;;;;;;;21.00;62.10;101600.50;4970042;28;20113;-72
2022/07/13 04:29:29;;;;;;;5.80;2.60;;;;;;;20.94;62.16;101604.09;4990572;28;20039;-72
2022/07/13 04:31:54;;;;;;;5.07;2.30;;;;;;;21.06;61.89;101599.63;4987743;28;20030;-72
2022/07/13 04:34:20;;;;;;;10.55;2.80;;;;;;;21.16;61.33;101600.09;4971605;28;20041;-72
2022/07/13 04:36:45;;;;;;;6.10;2.70;;;;;;;21.19;61.72;101591.41;4964659;28;20098;-72
2022/07/13 04:39:13;;;;;;;7.57;2.72;;;;;;;21.09;61.58;101593.72;4973049;28;20022;-72
2022/07/13 04:41:38;;;;;;;14.27;2.65;;;;;;;21.28;61.19;101594.81;4978005;28;20027;-72
2022/07/13 04:44:04;;;;;;;7.78;2.42;;;;;;;21.12;61.22;101598.81;4970133;28;20509;-72
2022/07/13 04:46:29;;;;;;;8.23;2.75;;;;;;;20.89;62.56;101596.44;4985149;28;20110;-72
2022/07/13 04:48:55;;;;;;;3.88;2.22;;;;;;;21.06;61.61;101585.88;4982959;28;20011;-72
2022/07/13 04:51:20;;;;;;;6.60;2.65;;;;;;;21.17;61.33;101590.75;4974280;28;20038;-72
2022/07/13 04:53:45;;;;;;;9.10;2.80;;;;;;;21.16;61.07;101586.31;4973541;28;20486;-72
2022/07/13 04:56:12;;;;;;;9.23;3.47;;;;;;;21.19;61.80;101594.19;4966286;28;20161;-72
2022/07/13 04:58:37;;;;;;;7.57;3.08;;;;;;;21.28;61.24;101581.91;4982324;28;20022;-72
2022/07/13 05:01:06;;;;;;;8.38;2.92;;;;;;;21.05;61.77;101575.91;4977287;28;20023;-72
2022/07/13 05:03:32;;;;;;;10.00;3.10;;;;;;;21.18;61.59;101581.44;4975278;28;20129;-72
2022/07/13 05:05:58;;;;;;;12.18;3.40;;;;;;;21.27;61.13;101580.19;4973768;28;20033;-72
2022/07/13 05:08:24;;;;;;;10.20;2.90;;;;;;;21.21;60.87;101575.53;4982901;28;20034;-72
2022/07/13 05:10:50;;;;;;;7.20;2.67;;;;;;;21.16;61.61;101567.03;4987721;28;20035;-72
2022/07/13 05:13:15;;;;;;;7.35;2.42;;;;;;;21.10;61.77;101562.38;4964459;28;20038;-72
2022/07/13 05:15:41;;;;;;;3.95;2.65;;;;;;;21.20;61.61;101562.81;4965805;28;20022;-72
2022/07/13 05:18:06;;;;;;;11.80;2.72;;;;;;;21.36;61.14;101562.41;4971727;28;20030;-72
2022/07/13 05:20:32;;;;;;;15.98;2.97;;;;;;;21.38;61.05;101560.28;4981013;28;20034;-72
2022/07/13 05:22:57;;;;;;;17.02;3.63;;;;;;;21.42;60.89;101559.88;4989884;28;20026;-72
2022/07/13 05:25:22;;;;;;;26.58;4.38;;;;;;;21.55;61.11;101554.34;4992054;28;20022;-72
2022/07/13 05:27:48;;;;;;;12.80;3.20;;;;;;;21.68;59.97;101548.81;4970673;28;20068;-72
2022/07/13 05:30:13;;;;;;;18.17;3.00;;;;;;;21.66;60.10;101550.94;4986776;28;20052;-73
2022/07/13 05:32:39;;;;;;;15.73;3.15;;;;;;;21.61;60.02;101547.97;4968388;28;20046;-72
2022/07/13 05:35:04;;;;;;;8.50;2.75;;;;;;;21.72;60.05;101549.22;4970249;28;20090;-72
2022/07/13 05:37:30;;;;;;;11.93;3.28;;;;;;;21.56;60.53;101556.88;4991953;28;20110;-72
2022/07/13 05:39:55;;;;;;;12.15;3.17;;;;;;;21.58;60.15;101548.38;4974715;28;20034;-72
2022/07/13 05:42:21;;;;;;;14.18;3.40;;;;;;;21.54;60.13;101552.66;4977169;28;20022;-72
2022/07/13 05:44:46;;;;;;;8.50;3.25;;;;;;;21.51;59.58;101547.56;4972248;28;20055;-72
2022/07/13 05:47:12;;;;;;;14.18;3.08;;;;;;;21.63;60.13;101552.19;4962731;28;20081;-72
2022/07/13 05:49:38;;;;;;;12.13;3.03;;;;;;;21.71;59.82;101553.88;4990868;28;20065;-72
2022/07/13 05:52:04;;;;;;;14.93;2.67;;;;;;;21.85;59.35;101561.06;4988900;28;20081;-72
2022/07/13 05:54:30;;;;;;;13.27;3.40;;;;;;;21.76;59.60;101561.50;4982124;28;20084;-72
2022/07/13 05:56:56;;;;;;;16.50;3.40;;;;;;;21.85;59.67;101561.06;4983248;28;20024;-72
2022/07/13 05:59:21;;;;;;;11.90;3.30;;;;;;;22.03;59.73;101559.50;4975485;28;20113;-72
2022/07/13 06:01:47;;;;;;;11.00;3.22;;;;;;;22.20;59.35;101558.00;4971462;28;20026;-72
2022/07/13 06:04:12;;;;;;;12.43;3.13;;;;;;;21.99;59.34;101552.75;4982540;28;20026;-72
2022/07/13 06:06:37;;;;;;;19.45;3.38;;;;;;;22.19;59.17;101556.31;4958913;28;20038;-72
2022/07/13 06:09:03;;;;;;;26.00;3.35;;;;;;;22.20;59.11;101555.25;4989834;28;20031;-72
2022/07/13 06:11:28;;;;;;;17.77;4.03;;;;;;;22.26;58.98;101551.63;4967653;28;20026;-71
2022/07/13 06:13:54;;;;;;;13.10;3.67;;;;;;;22.31;58.68;101549.06;4988188;28;20023;-71
2022/07/13 06:16:19;;;;;;;17.15;3.38;;;;;;;22.56;58.03;101551.03;4981566;28;20031;-71
2022/07/13 06:18:44;;;;;;;19.55;3.35;;;;;;;22.61;58.33;101543.78;4971976;28;20100;-71
2022/07/13 06:21:10;;;;;;;16.63;3.50;;;;;;;22.77;57.56;101542.44;4963864;28;20031;-71
2022/07/13 06:23:35;;;;;;;13.68;3.50;;;;;;;23.03;56.44;101544.19;4971739;28;20038;-71
2022/07/13 06:26:00;;;;;;;12.35;2.92;;;;;;;22.83;56.58;101541.53;4994360;28;20027;-71
2022/07/13 06:28:26;;;;;;;24.52;3.90;;;;;;;22.65;57.59;101538.69;4988185;28;20399;-71
2022/07/13 06:30:51;;;;;;;11.00;3.03;;;;;;;22.54;57.53;101531.09;4988396;28;20029;-72
2022/07/13 06:33:16;;;;;;;23.60;3.85;;;;;;;22.79;57.11;101531.16;4986297;28;20053;-72
2022/07/13 06:35:42;;;;;;;11.52;3.45;;;;;;;23.07;55.93;101530.75;4991198;28;20029;-71
2022/07/13 06:38:08;;;;;;;12.50;3.00;;;;;;;22.98;56.35;101533.78;4974080;28;20026;-69
2022/07/13 06:40:34;;;;;;;16.88;3.50;;;;;;;23.29;55.62;101530.13;4984015;28;20042;-69
2022/07/13 06:42:59;;;;;;;16.50;3.75;;;;;;;23.33;55.88;101525.00;4955440;28;20019;-69
2022/07/13 06:45:25;;;;;;;14.43;3.35;;;;;;;23.34;54.75;101532.19;4971634;28;20022;-69
2022/07/13 06:47:51;;;;;;;10.63;3.15;;;;;;;23.65;54.89;101527.69;4974363;28;20014;-69
2022/07/13 06:50:17;;;;;;;13.98;3.83;;;;;;;23.83;53.77;101530.47;4973630;28;20038;-69
2022/07/13 06:52:44;;;;;;;16.15;3.20;;;;;;;23.83;53.47;101524.94;4943912;28;20026;-69
2022/07/13 06:55:11;;;;;;;17.45;3.60;;;;;;;24.12;53.00;101522.44;4969188;28;20112;-69
2022/07/13 06:57:36;;;;;;;11.65;3.40;;;;;;;24.08;52.09;101520.16;4955487;28;20019;-69
2022/07/13 07:00:04;;;;;;;20.38;3.53;;;;;;;23.88;52.83;101522.34;4964419;28;20052;-69
2022/07/13 07:02:29;;;;;;;13.95;3.00;;;;;;;23.78;52.99;101516.47;4962920;28;20177;-69
2022/07/13 07:04:55;;;;;;;11.00;3.30;;;;;;;23.84;53.59;101521.09;4952882;28;20116;-69
2022/07/13 07:07:21;;;;;;;14.40;4.03;;;;;;;23.79;53.11;101520.94;4957824;28;20018;-69
2022/07/13 07:09:46;;;;;;;10.90;3.58;;;;;;;23.69;52.97;101526.16;4953016;28;20037;-69
2022/07/13 07:12:12;;;;;;;14.73;3.42;;;;;;;23.53;53.21;101525.63;4955659;28;20116;-69
2022/07/13 07:14:37;;;;;;;18.83;3.65;;;;;;;23.51;53.43;101533.31;4958119;28;20035;-69
2022/07/13 07:17:03;;;;;;;13.85;3.10;;;;;;;23.67;53.02;101525.53;4977370;28;20026;-69
2022/07/13 07:19:29;;;;;;;18.23;4.32;;;;;;;23.51;52.45;101527.78;4968645;28;20071;-69
2022/07/13 07:21:55;;;;;;;10.98;4.60;;;;;;;23.29;51.54;101524.63;4954090;28;20027;-69
2022/07/13 07:24:21;;;;;;;16.65;4.57;;;;;;;23.09;52.58;101528.63;4972361;28;20033;-69
2022/07/13 07:26:47;;;;;;;20.83;4.03;;;;;;;22.64;53.74;101525.94;4949566;28;20045;-69
2022/07/13 07:29:13;;;;;;;10.85;3.95;;;;;;;22.64;53.49;101515.75;4974119;28;20061;-68
2022/07/13 07:31:38;;;;;;;10.98;3.80;;;;;;;22.67;53.71;101514.44;4966693;28;20077;-69
2022/07/13 07:34:04;;;;;;;9.40;4.03;;;;;;;22.48;53.63;101516.25;4971445;28;20049;-69
2022/07/13 07:36:29;;;;;;;11.38;3.55;;;;;;;22.60;53.70;101486.03;4982356;28;20026;-69
2022/07/13 07:38:55;;;;;;;11.13;4.20;;;;;;;22.74;53.25;101487.63;4978902;28;20026;-69
2022/07/13 07:41:20;;;;;;;6.50;3.85;;;;;;;22.85;52.92;101470.34;4981251;28;20073;-69
2022/07/13 07:43:46;;;;;;;12.23;4.05;;;;;;;22.91;52.48;101480.53;4965521;28;20022;-69
2022/07/13 07:46:12;;;;;;;9.70;3.35;;;;;;;22.94;52.79;101482.81;4977711;28;20174;-69
2022/07/13 07:48:37;;;;;;;9.95;3.55;;;;;;;23.18;52.11;101499.63;4981181;28;20516;-69
2022/07/13 07:51:04;;;;;;;12.10;3.75;;;;;;;23.13;52.01;101496.69;4970316;28;20039;-69
2022/07/13 07:53:29;;;;;;;17.20;3.28;;;;;;;23.35;52.05;101494.38;4955307;28;20022;-69
2022/07/13 07:55:55;;;;;;;11.85;3.63;;;;;;;23.12;52.27;101501.38;4978914;28;20068;-69
2022/07/13 07:58:20;;;;;;;15.05;3.63;;;;;;;23.20;52.11;101500.25;4970034;28;20034;-69
2022/07/13 08:00:45;;;;;;;12.90;3.70;;;;;;;23.15;52.32;101497.34;4959499;28;20026;-69
2022/07/13 08:03:11;;;;;;;7.95;3.28;;;;;;;23.42;51.87;101490.47;4974554;28;20026;-69
2022/07/13 08:05:36;;;;;;;10.07;3.53;;;;;;;23.04;52.50;101503.59;4969457;28;20030;-69
2022/07/13 08:08:02;;;;;;;14.95;4.03;;;;;;;23.18;52.20;101499.63;4966413;28;20026;-72
2022/07/13 08:10:28;;;;;;;8.95;3.38;;;;;;;23.04;52.56;101487.84;4969105;28;20557;-69
2022/07/13 08:12:59;;;;;;;7.22;3.63;;;;;;;22.93;52.72;101497.72;4982804;28;20061;-69
2022/07/13 08:15:26;;;;;;;8.50;3.75;;;;;;;22.92;52.88;101493.25;4977535;28;20090;-68
2022/07/13 08:17:51;;;;;;;8.13;3.42;;;;;;;23.08;52.56;101482.72;4984138;28;20031;-70
2022/07/13 08:20:16;;;;;;;13.05;3.75;;;;;;;23.13;52.41;101493.94;4975192;28;20022;-69
2022/07/13 08:22:42;;;;;;;8.48;3.22;;;;;;;23.37;51.77;101487.53;4973421;28;20046;-69
2022/07/13 08:25:07;;;;;;;11.30;3.88;;;;;;;23.46;51.70;101491.69;4978824;28;20061;-68
2022/07/13 08:27:32;;;;;;;5.93;2.90;;;;;;;23.71;51.51;101488.91;4969847;28;20027;-69
2022/07/13 08:29:59;;;;;;;10.07;3.50;;;;;;;23.27;51.74;101487.22;4952273;28;20030;-69
2022/07/13 08:32:25;;;;;;;13.07;3.42;;;;;;;23.39;51.85;101485.38;4964506;28;20022;-69
2022/07/13 08:40:42;;;;;;;8.02;2.90;;;;;;;23.80;51.01;101486.69;4921023;29;20146;-70
2022/07/13 08:43:07;;;;;;;11.75;3.35;;;;;;;23.84;50.79;101479.59;4948475;28;20073;-70
2022/07/13 08:45:33;;;;;;;7.13;3.20;;;;;;;23.79;51.15;101482.22;4958740;28;20054;-69
2022/07/13 08:48:00;;;;;;;16.15;3.50;;;;;;;23.62;51.54;101478.41;4972684;28;20022;-69
2022/07/13 08:50:31;;;;;;;5.63;3.33;;;;;;;23.65;51.59;101488.97;4979566;28;20037;-69
2022/07/13 08:52:58;;;;;;;11.20;3.80;;;;;;;23.55;52.14;101495.88;4972883;28;20031;-69
2022/07/13 08:55:24;;;;;;;13.00;3.75;;;;;;;23.64;52.00;101481.75;4958093;28;20054;-70
2022/07/13 08:57:49;;;;;;;8.70;3.40;;;;;;;23.95;50.81;101473.31;4974695;28;20014;-70
2022/07/13 09:00:17;;;;;;;10.73;4.07;;;;;;;23.71;51.42;101482.53;4954060;28;20037;-70
2022/07/13 09:02:42;;;;;;;7.35;3.40;;;;;;;23.68;51.98;101488.53;4969557;28;20033;-69
2022/07/13 09:05:08;;;;;;;9.07;4.05;;;;;;;23.78;51.70;101494.34;4958244;28;20031;-70
2022/07/13 09:07:34;;;;;;;9.48;3.83;;;;;;;23.81;51.59;101493.91;4959015;28;20052;-69
2022/07/13 09:10:04;;;;;;;8.75;3.88;;;;;;;23.63;52.20;101485.59;4964605;28;20125;-69
2022/07/13 09:12:30;;;;;;;5.00;3.53;;;;;;;23.85;51.76;101473.00;4960094;28;20023;-70
2022/07/13 09:15:00;;;;;;;6.88;3.47;;;;;;;24.18;50.97;101467.03;4960354;28;20077;-70
2022/07/13 09:17:25;;;;;;;7.63;3.85;;;;;;;24.47;50.21;101465.38;4970556;28;20487;-70
2022/07/13 09:19:50;;;;;;;7.88;3.97;;;;;;;24.71;49.93;101465.41;4972270;28;20125;-70
2022/07/13 09:22:16;;;;;;;7.63;3.70;;;;;;;24.44;50.07;101465.81;4968435;28;20085;-69
2022/07/13 09:24:46;;;;;;;11.00;4.25;;;;;;;24.44;50.14;101468.59;4958928;28;20015;-70
2022/07/13 09:27:13;;;;;;;8.60;4.10;;;;;;;24.83;49.58;101457.97;4957790;28;20570;-70
2022/07/13 09:29:39;;;;;;;9.60;5.55;;;;;;;24.64;49.25;101471.91;4964508;28;20034;-68
2022/07/13 09:32:07;;;;;;;11.10;4.53;;;;;;;24.92;49.49;101456.56;4961253;28;20030;-68
2022/07/13 09:34:51;;;;;;;9.38;4.00;;;;;;;25.62;47.29;101462.09;4967498;28;20065;-69
2022/07/13 09:37:18;;;;;;;8.10;4.05;;;;;;;24.79;49.70;101463.16;4974719;28;20033;-68
2022/07/13 09:40:06;;;;;;;9.93;4.70;;;;;;;24.44;50.48;101459.44;4968291;28;20023;-68
2022/07/13 09:42:36;;;;;;;9.02;5.40;;;;;;;24.36;50.09;101458.72;4972739;28;20092;-71
2022/07/13 09:47:59;;;;;;;8.15;4.43;;;;;;;25.15;48.61;101450.19;4975414;28;20029;-70
2022/07/13 09:50:36;;;;;;;10.15;5.78;;;;;;;25.05;48.60;101439.72;4974366;28;20041;-71
2022/07/13 09:53:03;;;;;;;8.02;4.75;;;;;;;24.92;48.85;101439.94;4973487;28;20015;-71
2022/07/13 09:55:33;;;;;;;18.08;4.43;;;;;;;25.45;48.32;101444.53;4981766;28;20034;-69
2022/07/13 09:58:05;;;;;;;8.75;4.75;;;;;;;25.04;47.76;101439.91;4978896;28;20025;-69
2022/07/13 10:00:31;;;;;;;;;;;;;;;25.21;47.64;101443.69;4974780;28;20030;-69
2022/07/13 10:02:57;;;;;;;7.22;4.13;;;;;;;25.11;48.93;101438.78;4971528;28;20000;-68
2022/07/13 10:05:22;;;;;;;15.93;4.53;;;;;;;25.43;46.62;101441.16;4955807;28;20052;-69
2022/07/13 10:07:48;;;;;;;12.20;3.97;;;;;;;25.82;45.97;101441.44;4964086;28;20057;-68
2022/07/13 10:10:16;;;;;;;6.95;4.03;;;;;;;26.08;45.65;101440.91;4954655;28;20152;-68
2022/07/13 10:12:43;;;;;;;11.30;3.97;;;;;;;25.76;46.81;101428.59;4963456;28;20332;-69
2022/07/13 10:15:10;;;;;;;15.63;5.03;;;;;;;25.29;46.89;101434.16;4965580;28;20046;-69
2022/07/13 10:17:37;;;;;;;27.13;5.70;;;;;;;25.60;46.22;101436.53;4974096;28;20010;-70
2022/07/13 10:20:11;;;;;;;11.02;4.70;;;;;;;25.61;46.53;101429.91;4970427;28;20034;-69
2022/07/13 10:22:40;;;;;;;9.25;4.30;;;;;;;25.63;46.09;101436.06;4958371;28;20027;-70
2022/07/13 10:25:06;;;;;;;10.38;6.00;;;;;;;24.93;47.48;101436.09;4965817;28;20037;-69
2022/07/13 10:27:33;;;;;;;13.55;4.95;;;;;;;25.11;47.71;101433.22;4970101;28;20056;-69
2022/07/13 10:30:04;;;;;;;6.82;5.90;;;;;;;25.68;46.43;101422.28;4970681;28;20031;-69
2022/07/13 10:32:35;;;;;;;8.13;4.70;;;;;;;25.96;45.92;101423.44;4992789;28;20018;-70
2022/07/13 10:35:09;;;;;;;9.77;5.05;;;;;;;25.99;46.05;101422.94;4964260;28;20105;-69
2022/07/13 10:37:57;;;;;;;9.45;4.18;;;;;;;26.72;44.82;101427.63;4966975;28;20105;-70
2022/07/13 10:40:24;;;;;;;11.88;4.88;;;;;;;26.68;43.72;101426.47;4958531;28;20034;-70
2022/07/13 10:43:03;;;;;;;12.05;5.78;;;;;;;26.17;44.94;101431.06;4978066;28;20030;-69
2022/07/13 10:45:38;;;;;;;10.82;4.70;;;;;;;26.58;44.24;101431.84;4964248;28;20031;-70
2022/07/13 10:48:10;;;;;;;6.88;3.60;;;;;;;27.12;43.81;101436.91;4985114;28;20023;-71
2022/07/13 10:50:53;;;;;;;10.35;4.50;;;;;;;26.72;43.88;101427.63;4968512;28;20042;-73
2022/07/13 10:53:19;;;;;;;9.35;4.30;;;;;;;27.07;43.79;101429.34;4953540;28;20116;-72
2022/07/13 10:55:46;;;;;;;6.70;4.40;;;;;;;26.57;44.46;101432.94;4971863;28;20092;-72
2022/07/13 10:58:30;;;;;;;8.63;4.30;;;;;;;26.68;44.61;101425.63;4971703;28;20018;-72
2022/07/13 11:01:00;;;;;;;18.38;3.90;;;;;;;26.74;45.05;101419.91;4959715;28;20030;-72
2022/07/13 11:03:37;;;;;;;10.77;3.45;;;;;;;27.09;44.16;101409.63;4955202;28;20106;-72
2022/07/13 11:06:17;;;;;;;8.02;3.90;;;;;;;27.49;43.48;101409.34;4954998;28;20026;-72
2022/07/13 11:08:43;;;;;;;13.45;3.83;;;;;;;28.23;42.15;101423.59;4972334;28;20046;-72
2022/07/13 11:11:11;;;;;;;9.73;3.92;;;;;;;27.96;42.87;101403.28;4960972;28;20235;-72
2022/07/13 11:13:37;;;;;;;11.00;4.82;;;;;;;26.91;45.56;101419.03;4978519;28;20053;-72
2022/07/13 11:16:03;;;;;;;8.05;4.05;;;;;;;27.87;43.60;101402.91;4969359;28;20018;-72
2022/07/13 11:18:30;;;;;;;10.00;4.22;;;;;;;28.07;43.30;101405.06;4954342;28;20026;-73
2022/07/13 11:21:14;;;;;;;11.23;4.40;;;;;;;27.25;44.62;101412.34;4968043;28;20034;-73
2022/07/13 11:26:48;;;;;;;13.20;4.20;;;;;;;27.90;43.89;101404.31;4968842;28;20030;-72
2022/07/13 11:29:48;;;;;;;8.65;4.28;;;;;;;27.59;44.19;101421.47;4976813;28;20096;-72
2022/07/13 11:32:20;;;;;;;7.47;4.30;;;;;;;26.89;45.62;101426.81;4973917;28;20037;-72
2022/07/13 11:34:46;;;;;;;;;;;;;;;27.51;45.14;101424.69;4977243;28;20018;-72
2022/07/13 11:37:13;;;;;;;9.77;3.70;;;;;;;28.04;43.46;101405.63;4969082;28;19910;-72
2022/07/13 11:39:38;;;;;;;13.57;4.95;;;;;;;27.73;44.43;101405.25;4961254;28;20025;-72
2022/07/13 11:42:06;;;;;;;15.45;3.90;;;;;;;28.02;44.13;101418.94;4968324;28;20030;-73
2022/07/13 11:44:32;;;;;;;14.15;4.40;;;;;;;28.34;43.37;101405.09;4948487;28;20034;-71
2022/07/13 11:47:01;;;;;;;10.98;5.25;;;;;;;28.63;42.41;101408.44;4962145;28;20035;-71
2022/07/13 11:49:29;;;;;;;10.88;4.93;;;;;;;27.92;44.30;101407.69;4975582;28;20042;-72
2022/07/13 11:51:55;;;;;;;14.15;5.40;;;;;;;27.29;45.53;101398.78;4978919;28;20033;-71
2022/07/13 11:54:22;;;;;;;11.07;4.57;;;;;;;27.17;46.00;101418.38;4959188;28;20387;-71
2022/07/13 11:56:56;;;;;;;16.70;4.30;;;;;;;27.81;45.19;101390.88;4971420;28;20053;-71
2022/07/13 11:59:42;;;;;;;8.25;4.28;;;;;;;28.73;43.09;101402.94;4970685;28;20030;-71
2022/07/13 12:02:09;;;;;;;8.50;4.05;;;;;;;28.62;43.42;101402.00;4962380;28;20505;-72